createdAt,value
2018-12-29T00:01:33.028Z,5.20
2018-12-29T00:04:01.488Z,5.20
2018-12-29T00:06:30.015Z,5.20
2018-12-29T00:08:58.459Z,5.30
2018-12-29T00:11:26.924Z,5.30
2018-12-29T00:13:55.547Z,5.30
2018-12-29T00:16:24.012Z,5.40
2018-12-29T00:18:52.548Z,5.40
2018-12-29T00:21:21.037Z,5.40
2018-12-29T00:23:49.480Z,5.40
2018-12-29T00:26:18.106Z,5.50
2018-12-29T00:28:46.643Z,5.50
2018-12-29T00:31:15.105Z,5.50
2018-12-29T00:33:43.564Z,5.50
2018-12-29T00:36:12.067Z,5.60
2018-12-29T00:38:55.574Z,5.60
2018-12-29T00:41:24.087Z,5.60
2018-12-29T00:43:52.595Z,5.60
2018-12-29T00:46:21.427Z,5.70
2018-12-29T00:48:49.980Z,5.70
2018-12-29T00:51:18.430Z,5.70
2018-12-29T00:53:46.880Z,5.70
2018-12-29T00:56:15.508Z,5.70
2018-12-29T00:58:49.972Z,5.70
2018-12-29T01:01:18.448Z,5.70
2018-12-29T01:03:46.976Z,5.70
2018-12-29T01:06:15.431Z,5.80
2018-12-29T01:08:43.901Z,5.80
2018-12-29T01:11:12.404Z,5.80
2018-12-29T01:13:40.864Z,5.80
2018-12-29T01:16:09.339Z,5.80
2018-12-29T01:18:37.845Z,5.80
2018-12-29T01:21:06.293Z,5.80
2018-12-29T01:23:34.751Z,5.80
2018-12-29T01:26:03.402Z,5.80
2018-12-29T01:28:31.848Z,5.80
2018-12-29T01:31:00.672Z,5.90
2018-12-29T01:33:29.272Z,5.90
2018-12-29T01:35:57.863Z,5.90
2018-12-29T01:38:26.332Z,5.90
2018-12-29T01:40:54.871Z,5.90
2018-12-29T01:43:23.344Z,5.90
2018-12-29T01:45:51.852Z,5.90
2018-12-29T01:48:20.303Z,5.90
2018-12-29T01:50:48.743Z,5.90
2018-12-29T01:53:17.259Z,6.00
2018-12-29T01:55:45.710Z,6.00
2018-12-29T01:58:14.177Z,6.00
2018-12-29T02:00:42.771Z,6.00
2018-12-29T02:03:11.221Z,6.00
2018-12-29T02:05:39.743Z,6.00
2018-12-29T02:08:08.276Z,6.00
2018-12-29T02:10:36.721Z,6.00
2018-12-29T02:13:05.177Z,6.10
2018-12-29T02:15:33.710Z,6.10
2018-12-29T02:18:05.000Z,6.10
2018-12-29T02:20:33.457Z,6.10
2018-12-29T02:23:02.084Z,6.10
2018-12-29T02:25:30.615Z,6.10
2018-12-29T02:27:59.180Z,6.10
2018-12-29T02:30:27.704Z,6.10
2018-12-29T02:32:56.168Z,6.20
2018-12-29T02:35:24.709Z,6.20
2018-12-29T02:37:53.299Z,6.20
2018-12-29T02:40:21.763Z,6.20
2018-12-29T02:42:50.256Z,6.20
2018-12-29T02:45:18.735Z,6.20
2018-12-29T02:47:47.199Z,6.20
2018-12-29T02:50:25.711Z,6.20
2018-12-29T02:52:54.168Z,6.20
2018-12-29T02:55:22.624Z,6.20
2018-12-29T02:57:51.215Z,6.20
2018-12-29T03:00:19.667Z,6.20
2018-12-29T03:02:48.122Z,6.20
2018-12-29T03:05:16.639Z,6.30
2018-12-29T03:07:45.094Z,6.30
2018-12-29T03:10:20.396Z,6.30
2018-12-29T03:12:48.851Z,6.30
2018-12-29T03:15:17.368Z,6.40
2018-12-29T03:17:45.827Z,6.40
2018-12-29T03:20:14.281Z,6.50
2018-12-29T03:23:02.217Z,6.50
2018-12-29T03:25:30.658Z,6.50
2018-12-29T03:27:59.122Z,6.50
2018-12-29T03:30:27.721Z,6.50
2018-12-29T03:32:56.323Z,6.50
2018-12-29T03:35:24.839Z,6.60
2018-12-29T03:37:53.336Z,6.60
2018-12-29T03:40:21.792Z,6.60
2018-12-29T03:43:00.226Z,6.60
2018-12-29T03:45:28.679Z,6.60
2018-12-29T03:47:57.140Z,6.60
2018-12-29T03:50:25.679Z,6.60
2018-12-29T03:53:00.916Z,6.60
2018-12-29T03:55:29.404Z,6.60
2018-12-29T03:57:57.861Z,6.60
2018-12-29T04:00:26.377Z,6.60
2018-12-29T04:02:54.886Z,6.60
2018-12-29T04:05:23.344Z,6.60
2018-12-29T04:07:51.788Z,6.60
2018-12-29T04:10:20.300Z,6.60
2018-12-29T04:12:49.192Z,6.60
2018-12-29T04:15:17.659Z,6.70
2018-12-29T04:17:46.237Z,6.70
2018-12-29T04:20:14.775Z,6.70
2018-12-29T04:22:43.214Z,6.70
2018-12-29T04:25:11.723Z,6.70
2018-12-29T04:27:40.174Z,6.70
2018-12-29T04:30:08.612Z,6.70
2018-12-29T04:32:37.127Z,6.70
2018-12-29T04:35:05.823Z,6.70
2018-12-29T04:37:34.284Z,6.70
2018-12-29T04:40:02.950Z,6.70
2018-12-29T04:42:31.403Z,6.70
2018-12-29T04:44:59.867Z,6.70
2018-12-29T04:47:28.374Z,6.70
2018-12-29T04:49:56.828Z,6.70
2018-12-29T04:52:28.280Z,6.70
2018-12-29T04:54:56.799Z,6.70
2018-12-29T04:57:40.222Z,6.70
2018-12-29T05:00:08.975Z,6.70
2018-12-29T05:02:37.443Z,6.70
2018-12-29T05:05:06.162Z,6.70
2018-12-29T05:07:34.618Z,6.60
2018-12-29T05:10:03.647Z,6.60
2018-12-29T05:12:32.119Z,6.60
2018-12-29T05:15:00.583Z,6.60
2018-12-29T05:17:34.163Z,6.60
2018-12-29T05:20:02.679Z,6.60
2018-12-29T05:22:31.143Z,6.60
2018-12-29T05:24:59.658Z,6.60
2018-12-29T05:27:29.050Z,6.60
2018-12-29T05:29:57.559Z,6.60
2018-12-29T05:32:26.075Z,6.60
2018-12-29T05:34:54.602Z,6.60
2018-12-29T05:37:24.823Z,6.60
2018-12-29T05:39:53.290Z,6.60
2018-12-29T05:42:21.812Z,6.60
2018-12-29T05:44:50.328Z,6.60
2018-12-29T05:47:18.783Z,6.60
2018-12-29T05:49:47.238Z,6.60
2018-12-29T05:52:15.833Z,6.60
2018-12-29T05:54:44.282Z,6.60
2018-12-29T05:57:12.732Z,6.60
2018-12-29T05:59:41.243Z,6.60
2018-12-29T06:02:09.708Z,6.60
2018-12-29T06:04:38.155Z,6.60
2018-12-29T06:07:06.739Z,6.60
2018-12-29T06:09:35.194Z,6.60
2018-12-29T06:12:03.643Z,6.60
2018-12-29T06:14:32.168Z,6.60
2018-12-29T06:17:00.620Z,6.60
2018-12-29T06:19:29.074Z,6.60
2018-12-29T06:21:57.640Z,6.60
2018-12-29T06:24:26.173Z,6.60
2018-12-29T06:26:54.901Z,6.60
2018-12-29T06:29:23.420Z,6.60
2018-12-29T06:31:51.867Z,6.60
2018-12-29T06:34:20.319Z,6.60
2018-12-29T06:36:51.731Z,6.60
2018-12-29T06:39:20.188Z,6.60
2018-12-29T06:41:48.772Z,6.60
2018-12-29T06:44:17.288Z,6.70
2018-12-29T06:46:45.736Z,6.60
2018-12-29T06:49:14.291Z,6.60
2018-12-29T06:51:42.748Z,6.60
2018-12-29T06:54:11.189Z,6.60
2018-12-29T06:56:39.689Z,6.60
2018-12-29T06:59:08.141Z,6.60
2018-12-29T07:01:36.596Z,6.60
2018-12-29T07:04:05.376Z,6.60
2018-12-29T07:06:33.831Z,6.60
2018-12-29T07:09:02.299Z,6.60
2018-12-29T07:11:30.813Z,6.60
2018-12-29T07:13:59.284Z,6.60
2018-12-29T07:16:27.731Z,6.60
2018-12-29T07:18:56.335Z,6.60
2018-12-29T07:21:24.796Z,6.60
2018-12-29T07:23:53.242Z,6.50
2018-12-29T07:26:21.755Z,6.50
2018-12-29T07:28:59.057Z,6.50
2018-12-29T07:31:27.576Z,6.60
2018-12-29T07:33:56.033Z,6.50
2018-12-29T07:36:24.484Z,6.50
2018-12-29T07:38:52.972Z,6.60
2018-12-29T07:41:21.800Z,6.60
2018-12-29T07:43:50.247Z,6.60
2018-12-29T07:46:18.904Z,6.60
2018-12-29T07:48:47.353Z,6.60
2018-12-29T07:51:15.799Z,6.60
2018-12-29T07:53:44.303Z,6.60
2018-12-29T07:56:12.762Z,6.60
2018-12-29T07:58:41.213Z,6.60
2018-12-29T08:01:09.892Z,6.50
2018-12-29T08:03:38.367Z,6.50
2018-12-29T08:06:06.875Z,6.50
2018-12-29T08:08:35.467Z,6.50
2018-12-29T08:11:04.407Z,6.50
2018-12-29T08:13:32.854Z,6.50
2018-12-29T08:16:01.386Z,6.50
2018-12-29T08:18:29.866Z,6.50
2018-12-29T08:20:58.415Z,6.50
2018-12-29T08:23:28.485Z,6.50
2018-12-29T08:25:56.939Z,6.50
2018-12-29T08:28:25.443Z,6.50
2018-12-29T08:30:53.965Z,6.50
2018-12-29T08:33:22.415Z,6.60
2018-12-29T08:35:50.938Z,6.60
2018-12-29T08:38:19.452Z,6.60
2018-12-29T08:40:47.998Z,6.60
2018-12-29T08:43:16.526Z,6.60
2018-12-29T08:45:45.056Z,6.60
2018-12-29T08:48:13.507Z,6.60
2018-12-29T08:50:42.046Z,6.60
2018-12-29T08:53:10.496Z,6.60
2018-12-29T08:55:52.005Z,6.60
2018-12-29T08:58:20.464Z,6.60
2018-12-29T09:00:48.915Z,6.60
2018-12-29T09:03:17.428Z,6.60
2018-12-29T09:05:45.881Z,6.60
2018-12-29T09:08:14.360Z,6.60
2018-12-29T09:10:45.924Z,6.60
2018-12-29T09:13:14.366Z,6.70
2018-12-29T09:15:42.811Z,6.70
2018-12-29T09:18:11.585Z,6.70
2018-12-29T09:20:42.089Z,6.70
2018-12-29T09:23:10.533Z,6.70
2018-12-29T09:25:39.078Z,6.70
2018-12-29T09:28:07.693Z,6.70
2018-12-29T09:30:36.203Z,6.70
2018-12-29T09:33:05.117Z,6.70
2018-12-29T09:35:33.582Z,6.70
2018-12-29T09:38:02.175Z,6.70
2018-12-29T09:40:30.633Z,6.70
2018-12-29T09:42:59.075Z,6.80
2018-12-29T09:45:27.750Z,6.80
2018-12-29T09:47:56.227Z,6.80
2018-12-29T09:50:24.737Z,6.80
2018-12-29T09:52:53.245Z,6.80
2018-12-29T09:55:21.694Z,6.80
2018-12-29T09:57:50.161Z,6.80
2018-12-29T10:00:18.684Z,6.80
2018-12-29T10:02:47.212Z,6.80
2018-12-29T10:05:15.668Z,6.80
2018-12-29T10:07:44.188Z,6.80
2018-12-29T10:10:24.652Z,6.80
2018-12-29T10:12:53.160Z,6.80
2018-12-29T10:15:21.611Z,6.80
2018-12-29T10:17:50.099Z,6.80
2018-12-29T10:20:22.844Z,6.80
2018-12-29T10:22:51.300Z,6.80
2018-12-29T10:25:19.772Z,6.80
2018-12-29T10:27:48.243Z,6.80
2018-12-29T10:30:16.765Z,6.80
2018-12-29T10:32:45.212Z,6.80
2018-12-29T10:35:13.675Z,6.80
2018-12-29T10:37:42.169Z,6.80
2018-12-29T10:40:10.620Z,6.80
2018-12-29T10:42:39.144Z,6.80
2018-12-29T10:45:07.886Z,6.80
2018-12-29T10:47:36.410Z,6.80
2018-12-29T10:50:06.665Z,6.80
2018-12-29T10:52:35.136Z,6.80
2018-12-29T10:55:03.748Z,6.70
2018-12-29T10:57:32.246Z,6.70
2018-12-29T11:00:02.691Z,6.70
2018-12-29T11:02:31.134Z,6.70
2018-12-29T11:04:59.660Z,6.70
2018-12-29T11:07:28.120Z,6.70
2018-12-29T11:09:56.565Z,6.70
2018-12-29T11:12:25.105Z,6.80
2018-12-29T11:14:53.543Z,6.80
2018-12-29T11:17:22.072Z,6.70
2018-12-29T11:19:56.305Z,6.80
2018-12-29T11:22:24.833Z,6.80
2018-12-29T11:24:56.217Z,6.70
2018-12-29T11:27:24.736Z,6.70
2018-12-29T11:29:53.193Z,6.70
2018-12-29T11:32:21.647Z,6.70
2018-12-29T11:34:50.165Z,6.70
2018-12-29T11:37:18.623Z,6.70
2018-12-29T11:39:47.076Z,6.70
2018-12-29T11:42:15.573Z,6.60
2018-12-29T11:44:44.056Z,6.60
2018-12-29T11:47:12.585Z,6.60
2018-12-29T11:49:41.066Z,6.60
2018-12-29T11:52:36.149Z,6.60
2018-12-29T11:55:05.441Z,6.60
2018-12-29T11:57:34.058Z,6.60
2018-12-29T12:00:02.678Z,6.60
2018-12-29T12:02:31.417Z,6.50
2018-12-29T12:05:00.026Z,6.50
2018-12-29T12:07:28.549Z,6.50
2018-12-29T12:09:57.077Z,6.50
2018-12-29T12:12:25.670Z,6.60
2018-12-29T12:14:54.401Z,6.60
2018-12-29T12:17:22.923Z,6.60
2018-12-29T12:20:00.576Z,6.60
2018-12-29T12:22:29.220Z,6.60
2018-12-29T12:24:58.032Z,6.60
2018-12-29T12:27:26.584Z,6.60
2018-12-29T12:29:55.417Z,6.60
2018-12-29T12:32:23.947Z,6.60
2018-12-29T12:34:52.943Z,6.60
2018-12-29T12:37:21.470Z,6.60
2018-12-29T12:39:50.539Z,6.60
2018-12-29T12:42:19.100Z,6.60
2018-12-29T12:44:47.628Z,6.60
2018-12-29T12:47:16.311Z,6.60
2018-12-29T12:49:44.899Z,6.60
2018-12-29T12:52:13.425Z,6.60
2018-12-29T12:54:43.334Z,6.60
2018-12-29T12:57:12.196Z,6.60
2018-12-29T12:59:41.137Z,6.60
2018-12-29T13:02:09.720Z,6.60
2018-12-29T13:04:38.596Z,6.60
2018-12-29T13:07:07.747Z,6.60
2018-12-29T13:09:48.694Z,6.60
2018-12-29T13:12:17.222Z,6.60
2018-12-29T13:14:45.742Z,6.60
2018-12-29T13:17:14.435Z,6.60
2018-12-29T13:19:42.964Z,6.60
2018-12-29T13:22:11.494Z,6.60
2018-12-29T13:24:40.077Z,6.60
2018-12-29T13:27:08.772Z,6.60
2018-12-29T13:29:37.871Z,6.50
2018-12-29T13:32:06.414Z,6.50
2018-12-29T13:34:34.911Z,6.50
2018-12-29T13:37:03.425Z,6.50
2018-12-29T13:39:32.071Z,6.50
2018-12-29T13:42:00.684Z,6.50
2018-12-29T13:44:29.219Z,6.40
2018-12-29T13:46:57.739Z,6.40
2018-12-29T13:49:26.452Z,6.40
2018-12-29T13:51:55.267Z,6.40
2018-12-29T13:54:24.732Z,6.40
2018-12-29T13:56:53.396Z,6.30
2018-12-29T13:59:33.654Z,6.30
2018-12-29T14:02:02.386Z,6.40
2018-12-29T14:04:30.930Z,6.40
2018-12-29T14:06:59.546Z,6.30
2018-12-29T14:09:28.132Z,6.30
2018-12-29T14:11:56.662Z,6.30
2018-12-29T14:14:25.527Z,6.30
2018-12-29T14:16:54.164Z,6.30
2018-12-29T14:19:22.625Z,6.30
2018-12-29T14:21:51.355Z,6.30
2018-12-29T14:24:19.908Z,6.30
2018-12-29T14:26:48.607Z,6.30
2018-12-29T14:29:17.131Z,6.30
2018-12-29T14:31:45.651Z,6.30
2018-12-29T14:34:14.185Z,6.30
2018-12-29T14:36:42.780Z,6.30
2018-12-29T14:39:11.697Z,6.40
2018-12-29T14:41:40.211Z,6.30
2018-12-29T14:44:08.796Z,6.30
2018-12-29T14:46:37.338Z,6.30
2018-12-29T14:49:05.852Z,6.30
2018-12-29T14:51:34.446Z,6.30
2018-12-29T14:54:02.983Z,6.30
2018-12-29T14:56:31.677Z,6.20
2018-12-29T14:59:00.252Z,6.20
2018-12-29T15:01:28.779Z,6.30
2018-12-29T15:03:57.236Z,6.30
2018-12-29T15:06:25.809Z,6.30
2018-12-29T15:08:54.438Z,6.30
2018-12-29T15:11:22.978Z,6.30
2018-12-29T15:13:51.571Z,6.30
2018-12-29T15:16:20.118Z,6.30
2018-12-29T15:18:48.644Z,6.30
2018-12-29T15:21:17.227Z,6.30
2018-12-29T15:23:45.692Z,6.30
2018-12-29T15:26:14.507Z,6.30
2018-12-29T15:28:43.103Z,6.30
2018-12-29T15:31:11.621Z,6.30
2018-12-29T15:33:40.448Z,6.30
2018-12-29T15:36:15.856Z,6.30
2018-12-29T15:38:39.388Z,6.30
2018-12-29T15:41:08.127Z,6.30
2018-12-29T15:43:36.732Z,6.20
2018-12-29T15:46:06.523Z,6.20
2018-12-29T15:48:54.419Z,6.20
2018-12-29T15:51:23.399Z,6.20
2018-12-29T15:53:51.939Z,6.20
2018-12-29T15:56:20.829Z,6.30
2018-12-29T15:58:49.374Z,6.30
2018-12-29T16:01:18.277Z,6.30
2018-12-29T16:03:46.863Z,6.20
2018-12-29T16:06:15.405Z,6.30
2018-12-29T16:08:44.014Z,6.30
2018-12-29T16:11:12.876Z,6.20
2018-12-29T16:13:41.783Z,6.20
2018-12-29T16:16:10.321Z,6.20
2018-12-29T16:18:38.954Z,6.20
2018-12-29T16:21:07.466Z,6.20
2018-12-29T16:23:36.017Z,6.20
2018-12-29T16:26:04.694Z,6.10
2018-12-29T16:28:35.740Z,6.10
2018-12-29T16:31:04.796Z,6.10
2018-12-29T16:33:33.716Z,6.10
2018-12-29T16:36:02.537Z,6.00
2018-12-29T16:38:31.056Z,6.00
2018-12-29T16:41:00.049Z,6.00
2018-12-29T16:43:28.571Z,6.00
2018-12-29T16:45:57.095Z,6.00
2018-12-29T16:48:25.692Z,6.00
2018-12-29T16:50:54.672Z,6.00
2018-12-29T16:53:29.175Z,6.00
2018-12-29T16:55:53.384Z,6.00
2018-12-29T16:58:22.037Z,6.00
2018-12-29T17:00:50.861Z,6.00
2018-12-29T17:03:19.482Z,6.00
2018-12-29T17:05:48.031Z,6.00
2018-12-29T17:08:16.572Z,6.00
2018-12-29T17:10:45.458Z,6.00
2018-12-29T17:13:13.996Z,6.00
2018-12-29T17:15:42.524Z,6.00
2018-12-29T17:18:11.530Z,6.00
2018-12-29T17:20:39.993Z,6.00
2018-12-29T17:23:09.051Z,6.00
2018-12-29T17:25:38.206Z,6.00
2018-12-29T17:28:06.868Z,6.10
2018-12-29T17:30:35.487Z,6.10
2018-12-29T17:33:04.325Z,6.10
2018-12-29T17:35:33.411Z,6.10
2018-12-29T17:38:01.968Z,6.10
2018-12-29T17:40:30.736Z,6.10
2018-12-29T17:42:59.474Z,6.10
2018-12-29T17:45:27.983Z,6.10
2018-12-29T17:47:56.996Z,6.20
2018-12-29T17:50:25.950Z,6.20
2018-12-29T17:52:54.478Z,6.20
2018-12-29T17:55:23.080Z,6.20
2018-12-29T17:57:52.008Z,6.20
2018-12-29T18:00:21.094Z,6.20
2018-12-29T18:02:49.681Z,6.20
2018-12-29T18:05:18.213Z,6.20
2018-12-29T18:07:46.848Z,6.20
2018-12-29T18:10:15.964Z,6.20
2018-12-29T18:12:44.518Z,6.20
2018-12-29T18:15:13.047Z,6.20
2018-12-29T18:17:41.960Z,6.20
2018-12-29T18:20:10.544Z,6.20
2018-12-29T18:22:39.088Z,6.20
2018-12-29T18:25:07.763Z,6.20
2018-12-29T18:27:36.296Z,6.20
2018-12-29T18:30:05.676Z,6.20
2018-12-29T18:32:34.268Z,6.20
2018-12-29T18:35:02.818Z,6.20
2018-12-29T18:37:31.358Z,6.20
2018-12-29T18:40:00.343Z,6.20
2018-12-29T18:42:28.884Z,6.20
2018-12-29T18:44:57.437Z,6.20
2018-12-29T18:47:26.189Z,6.20
2018-12-29T18:49:54.728Z,6.20
2018-12-29T18:52:23.605Z,6.20
2018-12-29T18:54:52.161Z,6.20
2018-12-29T18:57:20.691Z,6.20
2018-12-29T18:59:49.287Z,6.20
2018-12-29T19:02:17.893Z,6.20
